Time;durP1;ratioP1;P1;durP2;ratioP2;P2;SDS_P1;SDS_P2;PMS_P1;PMS_P2;Temp;Humidity;BMP_temperature;BMP_pressure;BME280_temperature;BME280_humidity;BME280_pressure;Samples;Min_cycle;Max_cycle;Signal;HPM_P1;HPM_P2
2021/12/24 00:01:08;;;;;;;23.52;18.33;;;17.70;60.50;;;;;;4975289;28;20066;-24
2021/12/24 00:03:34;;;;;;;23.50;17.88;;;17.70;60.50;;;;;;4973891;28;20070;-26
2021/12/24 00:06:00;;;;;;;23.35;17.27;;;17.70;60.50;;;;;;4975122;28;20054;-29
2021/12/24 00:08:25;;;;;;;21.45;17.00;;;17.70;60.60;;;;;;4976472;28;20043;-30
2021/12/24 00:10:58;;;;;;;21.80;17.27;;;17.70;60.60;;;;;;4971132;28;20101;-29
2021/12/24 00:13:25;;;;;;;23.40;18.25;;;17.70;60.50;;;;;;4974971;28;20456;-30
2021/12/24 00:16:04;;;;;;;20.23;16.15;;;17.70;60.60;;;;;;4974826;28;20047;-26
2021/12/24 00:35:15;;;;;;;20.23;15.70;;;17.60;62.10;;;;;;4975838;28;19925;-24
2021/12/24 00:37:43;;;;;;;21.05;16.23;;;17.70;62.20;;;;;;4975584;28;20050;-26
2021/12/24 00:40:18;;;;;;;21.85;16.98;;;17.70;62.30;;;;;;4976548;28;20134;-33
2021/12/24 00:42:46;;;;;;;18.73;14.05;;;17.70;62.10;;;;;;4973534;28;20054;-26
2021/12/24 00:45:17;;;;;;;16.60;13.90;;;17.70;62.20;;;;;;4976431;28;20122;-29
2021/12/24 00:47:43;;;;;;;16.02;13.57;;;17.70;62.30;;;;;;4975786;28;20051;-28
2021/12/24 00:50:13;;;;;;;16.27;13.73;;;17.60;62.40;;;;;;4976104;28;20047;-31
2021/12/24 00:52:48;;;;;;;17.77;14.25;;;17.60;62.30;;;;;;4975255;28;20046;-33
2021/12/24 00:55:21;;;;;;;16.73;13.57;;;17.60;62.40;;;;;;4975910;28;20177;-32
2021/12/24 00:57:49;;;;;;;15.73;12.83;;;17.60;62.50;;;;;;4963933;28;20662;-26
2021/12/24 01:00:16;;;;;;;15.63;13.18;;;17.60;62.40;;;;;;4972774;28;20814;-28
2021/12/24 01:02:42;;;;;;;14.63;12.55;;;17.60;62.30;;;;;;4975213;28;20047;-27
2021/12/24 01:05:08;;;;;;;14.95;12.98;;;17.60;62.30;;;;;;4975353;28;20050;-27
2021/12/24 01:07:34;;;;;;;15.52;12.60;;;17.60;62.50;;;;;;4972143;28;20054;-26
2021/12/24 01:09:59;;;;;;;15.48;13.27;;;17.60;62.60;;;;;;4971311;28;20151;-26
2021/12/24 01:12:25;;;;;;;15.55;12.88;;;17.60;62.30;;;;;;4975196;28;20093;-28
2021/12/24 01:14:51;;;;;;;13.65;11.73;;;17.70;62.50;;;;;;4976038;28;20039;-26
2021/12/24 01:19:48;;;;;;;15.27;13.65;;;17.60;62.70;;;;;;4964775;28;20109;-27
2021/12/24 01:25:22;;;;;;;13.73;11.82;;;17.60;62.60;;;;;;4976030;28;20058;-29
2021/12/24 01:39:02;;;;;;;14.05;11.88;;;17.60;62.30;;;;;;4974912;28;20050;-29
2021/12/24 01:44:12;;;;;;;13.80;11.70;;;17.60;62.10;;;;;;4979781;28;20121;-27
2021/12/24 01:46:38;;;;;;;13.07;11.43;;;17.60;62.10;;;;;;4979221;28;20051;-27
2021/12/24 01:49:03;;;;;;;13.98;11.52;;;17.50;62.10;;;;;;4978142;28;20165;-31
2021/12/24 01:51:29;;;;;;;11.98;10.73;;;17.50;62.00;;;;;;4978312;28;20050;-28
2021/12/24 01:53:55;;;;;;;11.38;10.18;;;17.50;62.10;;;;;;4978592;28;20512;-27
2021/12/24 01:56:21;;;;;;;11.23;9.98;;;17.50;62.00;;;;;;4979672;28;20039;-25
2021/12/24 01:58:47;;;;;;;11.43;10.02;;;17.50;62.10;;;;;;5010488;28;20035;-25
2021/12/24 02:01:13;;;;;;;11.57;10.25;;;17.50;62.30;;;;;;4979435;28;20463;-31
2021/12/24 02:03:38;;;;;;;11.43;10.30;;;17.50;62.30;;;;;;4977263;28;20062;-27
2021/12/24 02:06:04;;;;;;;11.75;10.55;;;17.50;62.10;;;;;;4979571;28;20050;-30
2021/12/24 02:08:30;;;;;;;11.05;9.95;;;17.50;62.30;;;;;;4977970;28;20043;-25
2021/12/24 02:10:55;;;;;;;11.40;10.20;;;17.40;62.30;;;;;;4978892;28;20047;-25
2021/12/24 02:13:22;;;;;;;11.07;9.95;;;17.40;62.10;;;;;;4978960;28;20105;-28
2021/12/24 02:16:44;;;;;;;10.40;9.43;;;17.40;63.20;;;;;;4978144;28;20054;-28
2021/12/24 02:29:38;;;;;;;10.10;9.10;;;17.30;62.30;;;;;;4977143;28;20407;-26
2021/12/24 02:32:04;;;;;;;10.65;9.38;;;17.40;62.20;;;;;;4978415;28;20051;-31
2021/12/24 02:34:30;;;;;;;9.68;8.77;;;17.40;62.20;;;;;;4977762;28;20101;-32
2021/12/24 02:36:56;;;;;;;9.88;8.90;;;17.40;62.10;;;;;;4977774;28;20488;-27
2021/12/24 02:39:21;;;;;;;9.77;8.88;;;17.30;62.10;;;;;;4976924;28;20117;-31
2021/12/24 02:41:47;;;;;;;9.27;8.38;;;17.30;62.20;;;;;;4978190;28;20065;-26
2021/12/24 02:44:12;;;;;;;9.95;8.70;;;17.30;62.20;;;;;;4977454;28;20054;-27
2021/12/24 02:47:06;;;;;;;9.45;8.65;;;17.30;62.30;;;;;;4976222;28;20038;-24
2021/12/24 02:54:55;;;;;;;10.63;9.38;;;17.30;62.30;;;;;;4974937;28;20092;-31
2021/12/24 02:57:26;;;;;;;8.60;7.80;;;17.30;62.20;;;;;;4978238;28;20090;-27
2021/12/24 03:00:06;;;;;;;8.90;8.00;;;17.30;62.20;;;;;;4977117;28;20189;-30
2021/12/24 03:02:32;;;;;;;8.98;7.88;;;17.30;62.30;;;;;;4977706;28;20075;-29
2021/12/24 03:04:58;;;;;;;8.02;7.43;;;17.30;62.20;;;;;;4971312;28;21103;-28
2021/12/24 03:07:24;;;;;;;8.27;7.57;;;17.30;62.20;;;;;;4977228;28;20073;-25
2021/12/24 03:09:49;;;;;;;8.85;8.05;;;17.20;62.40;;;;;;4973270;28;20494;-27
2021/12/24 03:12:15;;;;;;;8.75;7.43;;;17.20;62.50;;;;;;4969250;28;20050;-29
2021/12/24 03:14:41;;;;;;;8.90;8.10;;;17.20;62.50;;;;;;4971062;28;20081;-30
2021/12/24 03:17:11;;;;;;;8.23;7.53;;;17.20;62.50;;;;;;4975026;28;20051;-28
2021/12/24 03:19:37;;;;;;;8.05;7.35;;;17.20;62.50;;;;;;4974903;28;20042;-28
2021/12/24 03:24:41;;;;;;;7.95;7.25;;;17.20;62.50;;;;;;4977075;28;20488;-27
2021/12/24 03:27:08;;;;;;;7.97;7.28;;;17.20;62.50;;;;;;4977460;28;20043;-29
2021/12/24 03:29:34;;;;;;;7.28;6.68;;;17.20;62.50;;;;;;4977984;28;20090;-28
2021/12/24 03:31:59;;;;;;;7.47;6.80;;;17.20;62.40;;;;;;4977431;28;20051;-24
2021/12/24 03:34:25;;;;;;;6.97;6.47;;;17.20;62.50;;;;;;4963680;28;20127;-28
2021/12/24 03:36:51;;;;;;;7.45;6.88;;;17.10;62.50;;;;;;4975619;28;20051;-29
2021/12/24 03:39:16;;;;;;;6.97;6.47;;;17.10;62.50;;;;;;4969902;28;20043;-25
2021/12/24 03:41:43;;;;;;;6.82;6.32;;;17.10;62.50;;;;;;4974521;28;20043;-27
2021/12/24 03:44:11;;;;;;;7.43;6.72;;;17.10;62.40;;;;;;4974876;28;20080;-29
2021/12/24 03:47:02;;;;;;;6.90;6.30;;;17.20;62.50;;;;;;4970725;28;20050;-28
2021/12/24 03:52:04;;;;;;;6.78;6.28;;;17.30;62.20;;;;;;4976778;28;20700;-24
2021/12/24 03:57:15;;;;;;;6.80;6.30;;;17.30;62.10;;;;;;4973268;28;20530;-38
2021/12/24 03:59:41;;;;;;;6.13;5.63;;;17.30;62.00;;;;;;4974647;28;20045;-30
2021/12/24 04:02:07;;;;;;;6.57;6.07;;;17.30;62.10;;;;;;4972258;28;20059;-28
2021/12/24 04:04:32;;;;;;;6.30;5.85;;;17.30;62.00;;;;;;4975387;28;20078;-26
2021/12/24 04:06:58;;;;;;;6.57;6.07;;;17.20;61.90;;;;;;4969734;28;20055;-31
2021/12/24 04:09:26;;;;;;;7.00;6.32;;;17.20;62.10;;;;;;4976700;28;20074;-29
2021/12/24 04:11:52;;;;;;;6.25;5.85;;;17.20;62.10;;;;;;4970086;28;20166;-39
2021/12/24 04:14:18;;;;;;;6.80;6.30;;;17.20;62.10;;;;;;4975534;28;20070;-27
2021/12/24 04:16:43;;;;;;;6.78;6.28;;;17.20;62.20;;;;;;4975601;28;20496;-25
2021/12/24 04:27:08;;;;;;;6.00;5.55;;;17.20;62.20;;;;;;4964757;28;20073;-28
2021/12/24 04:29:34;;;;;;;5.85;5.45;;;17.20;62.30;;;;;;4976766;28;20047;-28
2021/12/24 04:32:13;;;;;;;5.40;5.05;;;17.20;62.20;;;;;;4976280;28;20149;-29
2021/12/24 04:34:43;;;;;;;5.68;5.20;;;17.20;62.10;;;;;;4975940;28;20047;-25
2021/12/24 04:39:47;;;;;;;6.20;5.70;;;17.20;62.10;;;;;;4972217;28;20078;-23
2021/12/24 05:01:46;;;;;;;5.00;4.70;;;17.20;62.10;;;;;;4973530;28;20400;-28
2021/12/24 05:04:01;;;;;;;4.90;4.60;;;17.20;62.20;;;;;;4969031;28;20110;-27
2021/12/24 05:06:33;;;;;;;4.78;4.47;;;17.20;62.10;;;;;;4966824;28;20042;-27
2021/12/24 05:09:06;;;;;;;5.43;5.03;;;17.20;62.20;;;;;;4974487;28;20050;-29
2021/12/24 05:11:32;;;;;;;4.75;4.45;;;17.20;62.20;;;;;;4975676;28;20050;-26
2021/12/24 05:13:57;;;;;;;4.80;4.50;;;17.20;62.10;;;;;;4974645;28;20046;-25
2021/12/24 05:21:50;;;;;;;4.30;4.00;;;17.10;62.10;;;;;;4970722;28;20074;-27
2021/12/24 05:24:18;;;;;;;4.50;4.20;;;17.10;62.20;;;;;;4967455;28;20082;-29
2021/12/24 05:26:46;;;;;;;4.05;3.85;;;17.10;62.20;;;;;;4971220;28;20084;-29
2021/12/24 05:29:13;;;;;;;4.38;4.18;;;17.10;62.10;;;;;;4976214;28;20046;-25
2021/12/24 05:31:38;;;;;;;3.88;3.67;;;17.10;62.20;;;;;;4975764;28;20051;-32
2021/12/24 05:34:04;;;;;;;4.50;4.20;;;17.10;62.30;;;;;;4973593;28;20414;-28
2021/12/24 05:36:29;;;;;;;4.40;4.10;;;17.10;62.30;;;;;;4969747;28;20067;-30
2021/12/24 05:38:56;;;;;;;4.50;4.20;;;17.10;62.20;;;;;;4973888;28;20039;-30
2021/12/24 05:41:21;;;;;;;4.32;4.03;;;17.10;62.30;;;;;;4975989;28;20574;-31
2021/12/24 05:43:47;;;;;;;4.22;3.92;;;17.10;62.20;;;;;;4974901;28;20039;-28
2021/12/24 05:46:13;;;;;;;4.32;4.03;;;17.10;62.30;;;;;;4958401;28;20515;-30
2021/12/24 05:48:39;;;;;;;4.13;3.83;;;17.10;62.30;;;;;;4975186;28;20218;-26
2021/12/24 05:51:04;;;;;;;4.00;3.80;;;17.00;62.30;;;;;;4974611;28;20039;-26
2021/12/24 05:53:30;;;;;;;4.20;3.90;;;17.10;62.40;;;;;;4974324;28;20500;-26
2021/12/24 05:55:55;;;;;;;3.85;3.65;;;17.00;62.30;;;;;;4970172;28;20070;-28
2021/12/24 05:58:21;;;;;;;4.32;4.10;;;17.00;62.30;;;;;;4978153;28;20403;-29
2021/12/24 06:00:48;;;;;;;4.00;3.80;;;17.10;62.30;;;;;;4955958;28;20058;-29
2021/12/24 06:03:14;;;;;;;4.28;4.07;;;17.00;62.40;;;;;;4965226;28;20130;-28
2021/12/24 06:05:40;;;;;;;3.95;3.75;;;17.00;62.50;;;;;;4975370;28;20381;-28
2021/12/24 06:08:05;;;;;;;4.10;3.88;;;17.00;62.50;;;;;;4973213;28;20188;-31
2021/12/24 06:10:31;;;;;;;3.83;3.63;;;17.00;62.50;;;;;;4974276;28;20604;-31
2021/12/24 06:12:57;;;;;;;3.85;3.55;;;17.00;62.40;;;;;;4975173;28;20085;-27
2021/12/24 06:15:25;;;;;;;3.85;3.65;;;17.00;62.40;;;;;;4974942;28;20047;-28
2021/12/24 06:17:58;;;;;;;3.83;3.63;;;17.00;62.50;;;;;;4970942;28;20659;-27
2021/12/24 06:20:24;;;;;;;3.80;3.60;;;17.00;62.50;;;;;;4969225;28;20524;-32
2021/12/24 06:22:50;;;;;;;3.58;3.38;;;17.00;62.40;;;;;;4974266;28;20162;-30
2021/12/24 06:25:17;;;;;;;3.78;3.58;;;17.00;62.30;;;;;;4971773;28;20057;-28
2021/12/24 06:27:43;;;;;;;3.85;3.63;;;17.00;62.50;;;;;;4959544;28;20138;-31
2021/12/24 06:30:09;;;;;;;3.38;3.17;;;17.00;62.50;;;;;;4978838;28;20051;-29
2021/12/24 06:32:35;;;;;;;4.15;3.92;;;17.00;62.60;;;;;;4978004;28;20139;-29
2021/12/24 06:35:00;;;;;;;3.30;3.10;;;17.00;62.70;;;;;;4978615;28;20063;-27
2021/12/24 06:37:26;;;;;;;3.63;3.42;;;16.90;62.60;;;;;;4977386;28;20055;-34
2021/12/24 06:39:51;;;;;;;3.42;3.22;;;17.00;62.80;;;;;;4974703;28;20528;-23
2021/12/24 06:42:17;;;;;;;2.88;2.78;;;16.90;62.80;;;;;;4977891;28;20051;-30
2021/12/24 06:44:43;;;;;;;3.00;2.90;;;17.00;62.90;;;;;;4978835;28;20047;-26
2021/12/24 06:47:08;;;;;;;3.75;3.55;;;17.00;62.90;;;;;;4977552;28;20061;-26
2021/12/24 06:49:34;;;;;;;3.20;3.00;;;17.00;62.90;;;;;;4978366;28;20057;-30
2021/12/24 06:52:00;;;;;;;3.20;3.00;;;17.00;62.90;;;;;;4976668;28;20067;-28
2021/12/24 06:54:25;;;;;;;2.60;2.50;;;17.00;62.80;;;;;;4973282;28;20050;-27
2021/12/24 06:56:51;;;;;;;3.40;3.20;;;16.90;62.90;;;;;;4976178;28;20043;-29
2021/12/24 06:59:17;;;;;;;2.60;2.50;;;17.00;62.80;;;;;;4978156;28;20047;-32
2021/12/24 07:01:42;;;;;;;3.45;3.25;;;16.90;62.80;;;;;;4976877;28;20050;-31
2021/12/24 07:04:08;;;;;;;3.05;2.85;;;16.90;62.80;;;;;;4978141;28;20102;-26
2021/12/24 07:06:34;;;;;;;2.88;2.78;;;16.90;62.80;;;;;;4978291;28;20098;-24
2021/12/24 07:09:00;;;;;;;2.67;2.47;;;16.90;62.90;;;;;;4974726;28;20133;-27
2021/12/24 07:11:25;;;;;;;2.65;2.47;;;16.90;62.80;;;;;;4977021;28;20062;-32
2021/12/24 07:13:51;;;;;;;2.70;2.53;;;16.90;62.90;;;;;;4977994;28;20050;-27
2021/12/24 07:16:17;;;;;;;2.70;2.60;;;16.90;62.90;;;;;;4977868;28;20047;-27
2021/12/24 07:18:43;;;;;;;2.40;2.30;;;16.90;63.00;;;;;;4978050;28;20496;-29
2021/12/24 07:21:08;;;;;;;2.47;2.38;;;16.90;62.90;;;;;;4965667;28;20062;-28
2021/12/24 07:23:34;;;;;;;2.80;2.60;;;16.90;63.00;;;;;;4978562;28;20054;-26
2021/12/24 07:26:00;;;;;;;2.53;2.42;;;16.90;63.10;;;;;;4976483;28;20070;-30
2021/12/24 07:28:26;;;;;;;2.58;2.47;;;16.90;63.00;;;;;;4976444;28;20042;-26
2021/12/24 07:30:51;;;;;;;2.80;2.65;;;16.90;63.90;;;;;;4967085;28;20065;-29
2021/12/24 07:33:17;;;;;;;2.45;2.35;;;16.90;63.00;;;;;;4970284;28;20117;-23
2021/12/24 07:35:43;;;;;;;2.50;2.40;;;16.90;62.90;;;;;;4975217;28;20631;-30
2021/12/24 07:38:09;;;;;;;2.47;2.38;;;16.90;62.70;;;;;;4967373;28;20062;-33
2021/12/24 07:40:36;;;;;;;2.30;2.20;;;16.90;62.90;;;;;;4973307;28;20067;-29
2021/12/24 07:43:01;;;;;;;2.13;2.03;;;16.80;62.90;;;;;;4974717;28;20648;-30
2021/12/24 07:45:27;;;;;;;2.63;2.53;;;16.80;63.00;;;;;;4972872;28;20098;-27
2021/12/24 07:48:09;;;;;;;2.20;2.10;;;16.80;62.90;;;;;;4974632;28;20055;-25
2021/12/24 07:53:02;;;;;;;2.60;2.50;;;16.90;62.70;;;;;;4972999;28;20095;-27
2021/12/24 07:55:28;;;;;;;2.33;2.22;;;16.90;62.70;;;;;;4971076;28;20035;-26
2021/12/24 07:57:53;;;;;;;2.65;2.55;;;16.90;62.40;;;;;;4968916;28;20074;-27
2021/12/24 08:00:22;;;;;;;2.30;2.20;;;16.90;62.80;;;;;;4975251;28;20129;-31
2021/12/24 08:02:48;;;;;;;2.60;2.47;;;16.90;62.80;;;;;;4972473;28;20051;-29
2021/12/24 08:05:14;;;;;;;2.10;2.00;;;16.90;63.00;;;;;;4966413;28;20496;-27
2021/12/24 08:07:40;;;;;;;2.50;2.40;;;16.90;63.00;;;;;;4966059;28;20082;-32
2021/12/24 08:10:05;;;;;;;2.17;2.08;;;17.00;62.90;;;;;;4971081;28;20551;-27
2021/12/24 08:12:31;;;;;;;2.60;2.35;;;17.00;63.30;;;;;;4961766;28;20054;-31
2021/12/24 08:14:57;;;;;;;2.28;2.10;;;16.90;63.10;;;;;;4960090;28;20153;-31
2021/12/24 08:17:22;;;;;;;2.17;2.08;;;16.90;63.10;;;;;;4961801;28;20057;-34
2021/12/24 08:19:48;;;;;;;2.42;2.20;;;16.90;63.50;;;;;;4959982;28;20062;-31
2021/12/24 08:22:13;;;;;;;2.78;2.58;;;17.00;63.50;;;;;;4960877;28;20710;-31
2021/12/24 08:24:39;;;;;;;3.88;2.75;;;17.00;63.80;;;;;;4961537;28;20047;-28
2021/12/24 08:27:05;;;;;;;2.70;2.60;;;17.20;64.70;;;;;;4961485;28;20083;-27
2021/12/24 08:29:31;;;;;;;3.10;2.80;;;17.10;64.40;;;;;;4960773;28;20696;-33
2021/12/24 08:31:56;;;;;;;3.45;3.15;;;17.20;64.90;;;;;;4961403;28;20073;-30
2021/12/24 08:34:22;;;;;;;4.85;2.70;;;17.20;64.10;;;;;;4962328;28;20054;-27
2021/12/24 08:36:49;;;;;;;2.72;2.60;;;17.20;64.60;;;;;;4958657;28;20061;-34
2021/12/24 08:39:17;;;;;;;4.15;2.90;;;17.20;64.80;;;;;;4960182;28;20051;-32
2021/12/24 08:41:43;;;;;;;3.80;2.92;;;17.20;64.80;;;;;;4961131;28;20055;-30
2021/12/24 08:44:08;;;;;;;2.88;2.67;;;17.30;64.60;;;;;;4961368;28;20057;-31
2021/12/24 08:46:36;;;;;;;4.57;2.60;;;17.20;64.50;;;;;;4960821;28;20058;-34
2021/12/24 08:49:02;;;;;;;2.70;2.60;;;17.20;64.60;;;;;;4958049;28;20089;-26
2021/12/24 08:51:28;;;;;;;3.70;2.90;;;17.20;64.60;;;;;;4960468;28;20050;-31
2021/12/24 08:53:53;;;;;;;3.05;2.20;;;17.40;64.00;;;;;;4615024;28;10000652;-27
2021/12/24 08:56:21;;;;;;;2.70;2.50;;;17.30;64.20;;;;;;4959286;28;20081;-25
2021/12/24 08:58:46;;;;;;;3.42;2.60;;;17.30;64.30;;;;;;4956996;28;20093;-30
2021/12/24 09:01:12;;;;;;;3.40;2.78;;;17.30;64.40;;;;;;4958328;28;20062;-35
2021/12/24 09:03:38;;;;;;;3.10;2.72;;;17.30;64.40;;;;;;4959333;28;20553;-33
2021/12/24 09:06:03;;;;;;;2.60;2.40;;;17.30;64.30;;;;;;4958648;28;20061;-27
2021/12/24 09:08:29;;;;;;;2.35;2.25;;;17.30;64.30;;;;;;4959090;28;20047;-29
2021/12/24 09:10:54;;;;;;;2.60;2.40;;;17.20;64.30;;;;;;4957719;28;20049;-25
2021/12/24 09:13:20;;;;;;;3.72;2.40;;;17.20;64.20;;;;;;4956588;28;20850;-32
2021/12/24 09:15:46;;;;;;;2.40;2.20;;;17.20;64.20;;;;;;4959280;28;20062;-27
2021/12/24 09:18:11;;;;;;;2.60;2.40;;;17.20;64.20;;;;;;4958516;28;20145;-27
2021/12/24 09:20:41;;;;;;;2.80;2.30;;;17.30;64.60;;;;;;4957066;28;20187;-26
2021/12/24 09:23:08;;;;;;;2.50;2.10;;;17.30;64.10;;;;;;4957867;28;20051;-30
2021/12/24 09:25:33;;;;;;;2.30;2.10;;;17.40;63.70;;;;;;4959222;28;20061;-29
2021/12/24 09:27:59;;;;;;;2.40;2.20;;;17.30;64.40;;;;;;4958521;28;20637;-34
2021/12/24 09:30:25;;;;;;;2.75;2.30;;;17.30;63.60;;;;;;4956677;28;20054;-30
2021/12/24 09:32:51;;;;;;;2.90;2.58;;;17.30;63.50;;;;;;4959007;28;20050;-29
2021/12/24 09:35:17;;;;;;;4.05;2.35;;;17.30;63.40;;;;;;4958028;28;20059;-29
2021/12/24 09:37:43;;;;;;;2.15;1.98;;;17.30;63.20;;;;;;4959113;28;20053;-26
2021/12/24 09:40:10;;;;;;;2.08;1.98;;;17.40;63.20;;;;;;4957012;28;20145;-30
2021/12/24 09:42:36;;;;;;;2.40;2.25;;;17.40;63.00;;;;;;4958993;28;20800;-27
2021/12/24 09:45:03;;;;;;;2.47;2.30;;;17.40;63.00;;;;;;4958136;28;20109;-32
2021/12/24 09:47:28;;;;;;;2.72;1.90;;;17.40;62.80;;;;;;4957656;28;20035;-29
2021/12/24 09:49:54;;;;;;;2.20;2.00;;;17.40;62.60;;;;;;4956747;28;21342;-26
2021/12/24 09:52:22;;;;;;;2.47;2.28;;;17.40;62.80;;;;;;4958318;28;20049;-31
2021/12/24 09:54:47;;;;;;;2.90;2.25;;;17.30;62.80;;;;;;4957376;28;20054;-32
2021/12/24 09:57:13;;;;;;;2.20;2.10;;;17.30;62.80;;;;;;4958005;28;20049;-29
2021/12/24 09:59:39;;;;;;;2.30;2.20;;;17.40;62.70;;;;;;4956515;28;20055;-30
2021/12/24 10:02:08;;;;;;;1.90;1.80;;;17.30;62.60;;;;;;4960087;28;20050;-28
2021/12/24 10:04:34;;;;;;;3.75;2.20;;;17.30;62.70;;;;;;4960563;28;21246;-26
2021/12/24 10:07:03;;;;;;;2.20;2.10;;;17.30;62.70;;;;;;4961737;28;20051;-32
2021/12/24 10:09:49;;;;;;;2.17;2.08;;;17.40;62.80;;;;;;4961320;28;20097;-29
2021/12/24 10:12:18;;;;;;;2.85;2.17;;;17.30;63.00;;;;;;4961941;28;20216;-30
2021/12/24 10:14:48;;;;;;;2.78;1.98;;;17.30;63.10;;;;;;4962616;28;20046;-29
2021/12/24 10:17:16;;;;;;;2.50;2.10;;;17.30;62.90;;;;;;4961476;28;20046;-29
2021/12/24 10:19:56;;;;;;;2.33;1.90;;;17.30;63.90;;;;;;4960195;28;20047;-32
2021/12/24 10:22:22;;;;;;;2.28;2.13;;;17.30;63.30;;;;;;4961349;28;20090;-32
2021/12/24 10:25:00;;;;;;;1.85;1.75;;;17.30;63.20;;;;;;4961919;28;20145;-27
2021/12/24 10:27:31;;;;;;;3.70;1.70;;;17.30;63.30;;;;;;4961177;28;20070;-26
2021/12/24 10:29:57;;;;;;;2.00;1.90;;;17.20;63.30;;;;;;4960250;28;20113;-29
2021/12/24 10:32:22;;;;;;;1.90;1.80;;;17.20;63.20;;;;;;4961004;28;20051;-27
2021/12/24 10:34:48;;;;;;;2.28;2.10;;;17.20;63.20;;;;;;4961048;28;20721;-33
2021/12/24 10:37:23;;;;;;;2.03;1.92;;;17.30;63.00;;;;;;4961554;28;20057;-32
2021/12/24 10:39:52;;;;;;;1.88;1.77;;;17.40;62.60;;;;;;4960795;28;20617;-34
2021/12/24 10:42:35;;;;;;;2.20;2.10;;;17.30;62.80;;;;;;4960947;28;20042;-28
2021/12/24 10:45:03;;;;;;;2.15;2.05;;;17.30;62.80;;;;;;4960500;28;20084;-31
2021/12/24 10:47:35;;;;;;;1.73;1.63;;;17.40;62.60;;;;;;4960223;28;20043;-31
2021/12/24 10:55:34;;;;;;;2.17;2.08;;;17.50;62.30;;;;;;4961064;28;20047;-34
2021/12/24 10:58:00;;;;;;;2.13;1.92;;;17.60;62.90;;;;;;4962963;28;20078;-28
2021/12/24 11:00:38;;;;;;;1.77;1.67;;;17.50;62.30;;;;;;4962511;28;20059;-31
2021/12/24 11:03:16;;;;;;;1.33;1.33;;;17.50;62.50;;;;;;4962940;28;20047;-30
2021/12/24 11:05:46;;;;;;;2.35;1.35;;;17.50;62.70;;;;;;4962037;28;20054;-30
2021/12/24 11:08:16;;;;;;;1.88;1.70;;;17.50;62.70;;;;;;4963670;28;20146;-28
2021/12/24 11:10:43;;;;;;;1.90;1.80;;;17.50;62.80;;;;;;4961475;28;20534;-25
2021/12/24 11:13:19;;;;;;;1.70;1.60;;;17.50;62.70;;;;;;4960055;28;20057;-30
2021/12/24 11:15:51;;;;;;;2.05;1.95;;;17.50;62.50;;;;;;4970176;28;20046;-32
2021/12/24 11:18:25;;;;;;;1.92;1.83;;;17.50;62.40;;;;;;4963949;28;20490;-25
2021/12/24 11:20:58;;;;;;;1.60;1.50;;;17.50;62.50;;;;;;4960849;28;20144;-26
2021/12/24 11:23:25;;;;;;;2.08;1.98;;;17.60;62.30;;;;;;4963213;28;20290;-28
2021/12/24 11:25:53;;;;;;;2.00;1.90;;;17.50;62.40;;;;;;4963967;28;20058;-30
2021/12/24 11:28:19;;;;;;;1.70;1.60;;;17.50;62.30;;;;;;4962884;28;20122;-32
2021/12/24 11:30:49;;;;;;;1.88;1.77;;;17.50;62.40;;;;;;4960946;28;20944;-32
2021/12/24 11:33:17;;;;;;;1.80;1.70;;;17.50;62.20;;;;;;4961548;28;20059;-29
2021/12/24 11:35:46;;;;;;;2.83;1.80;;;17.50;62.50;;;;;;4964086;28;20074;-31
2021/12/24 11:38:17;;;;;;;2.42;1.50;;;17.60;62.40;;;;;;4963386;28;20055;-28
2021/12/24 11:40:44;;;;;;;1.33;1.30;;;17.60;62.40;;;;;;4961181;28;20821;-29
2021/12/24 11:43:10;;;;;;;2.00;1.90;;;17.50;62.20;;;;;;4962247;28;20047;-28
2021/12/24 11:45:35;;;;;;;8.35;4.90;;;17.60;62.70;;;;;;4962054;28;20050;-29
2021/12/24 11:48:02;;;;;;;3.22;2.60;;;17.60;62.20;;;;;;4963270;28;20051;-26
2021/12/24 11:50:27;;;;;;;2.60;2.28;;;17.70;62.10;;;;;;4959812;28;20673;-26
2021/12/24 11:52:56;;;;;;;4.72;2.10;;;17.60;62.30;;;;;;4962999;28;20058;-27
2021/12/24 11:55:22;;;;;;;3.40;2.17;;;17.50;62.10;;;;;;4960847;28;20050;-27
2021/12/24 11:57:51;;;;;;;5.03;2.22;;;17.50;62.20;;;;;;4961824;28;20401;-30
2021/12/24 12:00:21;;;;;;;4.22;2.97;;;17.50;62.30;;;;;;4959391;28;20058;-27
2021/12/24 12:02:46;;;;;;;2.82;2.64;;;17.60;61.90;;;;;;4618212;28;10000687;-28
2021/12/24 12:05:14;;;;;;;2.70;2.33;;;17.70;61.30;;;;;;4955659;28;20599;-31
2021/12/24 12:07:40;;;;;;;3.55;2.60;;;17.80;61.30;;;;;;4955458;28;20138;-30
2021/12/24 12:10:07;;;;;;;3.63;2.75;;;17.90;61.10;;;;;;4952282;28;20808;-29
2021/12/24 12:12:39;;;;;;;3.40;2.63;;;17.90;60.90;;;;;;4955526;28;20055;-29
2021/12/24 12:15:27;;;;;;;2.60;2.50;;;18.00;60.90;;;;;;4955521;28;20101;-28
2021/12/24 12:17:55;;;;;;;2.42;2.33;;;18.00;61.10;;;;;;4956293;28;20586;-30
2021/12/24 12:20:56;;;;;;;2.40;2.20;;;17.90;61.60;;;;;;4954129;28;20233;-32
2021/12/24 12:23:50;;;;;;;2.33;2.22;;;17.90;62.30;;;;;;4959002;28;20073;-26
2021/12/24 12:26:53;;;;;;;2.42;2.30;;;17.90;62.30;;;;;;4959540;28;20118;-30
2021/12/24 12:29:21;;;;;;;3.00;2.75;;;17.90;61.80;;;;;;4957849;28;20101;-28
2021/12/24 12:31:48;;;;;;;2.20;2.10;;;18.00;61.70;;;;;;4960858;28;20096;-29
2021/12/24 12:34:38;;;;;;;2.58;2.40;;;18.00;61.80;;;;;;4958240;28;20074;-28
2021/12/24 12:37:40;;;;;;;2.30;2.20;;;17.90;61.80;;;;;;4959514;28;20142;-29
2021/12/24 12:40:12;;;;;;;2.67;2.55;;;18.00;62.40;;;;;;4953289;28;20050;-27
2021/12/24 12:42:55;;;;;;;3.78;2.67;;;17.90;62.10;;;;;;4960635;28;20061;-25
2021/12/24 12:45:42;;;;;;;2.63;2.47;;;18.00;62.00;;;;;;4956714;28;20401;-28
2021/12/24 12:48:09;;;;;;;3.95;2.65;;;18.00;61.90;;;;;;4961219;28;20039;-29
2021/12/24 12:50:36;;;;;;;2.28;2.13;;;18.00;61.70;;;;;;4954988;28;20070;-26
2021/12/24 12:53:22;;;;;;;2.83;2.63;;;18.00;61.80;;;;;;4960252;28;20066;-28
2021/12/24 12:55:48;;;;;;;;;;;18.00;61.80;;;;;;4960178;28;20249;-29
2021/12/24 12:58:24;;;;;;;3.58;2.50;;;18.00;61.60;;;;;;4959918;28;20032;-31
2021/12/24 13:01:03;;;;;;;2.58;2.45;;;18.00;61.70;;;;;;4956582;28;20058;-27
2021/12/24 13:03:29;;;;;;;2.85;2.60;;;18.20;61.90;;;;;;4960393;28;20051;-26
2021/12/24 13:05:57;;;;;;;6.93;3.33;;;18.20;61.90;;;;;;4961857;28;20054;-25
2021/12/24 13:08:24;;;;;;;3.65;2.72;;;18.10;62.60;;;;;;4961519;28;20054;-25
2021/12/24 13:11:20;;;;;;;9.32;2.67;;;18.10;62.70;;;;;;4957948;28;20069;-31
2021/12/24 13:14:01;;;;;;;4.07;2.22;;;18.30;62.50;;;;;;4961020;28;20062;-23
2021/12/24 13:16:39;;;;;;;9.57;2.50;;;18.40;62.40;;;;;;4961459;28;20062;-28
2021/12/24 13:19:31;;;;;;;2.35;2.15;;;18.50;62.40;;;;;;4959206;28;20142;-26
2021/12/24 13:24:51;;;;;;;;;;;18.50;62.20;;;;;;4961327;28;20061;-29
2021/12/24 13:27:17;;;;;;;3.17;1.95;;;18.50;62.00;;;;;;4960073;28;19937;-26
2021/12/24 13:29:43;;;;;;;4.22;2.15;;;18.50;62.00;;;;;;4957513;28;20055;-28
2021/12/24 13:32:09;;;;;;;6.43;3.42;;;18.50;62.00;;;;;;4961222;28;20081;-32
2021/12/24 13:34:36;;;;;;;2.53;2.30;;;18.60;61.90;;;;;;4959791;28;20931;-27
2021/12/24 13:37:02;;;;;;;4.28;3.53;;;18.60;61.80;;;;;;4964996;28;20051;-28
2021/12/24 13:39:28;;;;;;;5.07;2.90;;;18.70;62.40;;;;;;4963343;28;20415;-26
2021/12/24 13:42:04;;;;;;;4.13;2.85;;;18.70;61.80;;;;;;4964199;28;20051;-29
2021/12/24 13:44:31;;;;;;;5.07;2.67;;;18.70;60.80;;;;;;4964318;28;20047;-31
2021/12/24 13:46:59;;;;;;;3.55;3.25;;;18.60;61.60;;;;;;4964771;28;20050;-27
2021/12/24 13:55:16;;;;;;;4.78;3.25;;;18.80;61.30;;;;;;4962818;28;20057;-31
2021/12/24 13:57:49;;;;;;;2.97;2.67;;;18.80;61.70;;;;;;4964851;28;20050;-28
2021/12/24 14:00:15;;;;;;;5.95;2.80;;;18.80;61.40;;;;;;4960218;28;21352;-28
2021/12/24 14:02:41;;;;;;;3.60;2.63;;;18.70;61.50;;;;;;4963365;28;20098;-26
2021/12/24 14:05:06;;;;;;;3.63;2.58;;;18.70;61.50;;;;;;4963519;28;20089;-25
2021/12/24 14:07:32;;;;;;;4.68;2.70;;;18.70;61.80;;;;;;4965303;28;20101;-27
2021/12/24 14:09:58;;;;;;;3.13;2.83;;;18.80;61.50;;;;;;4961738;28;20094;-29
2021/12/24 14:12:27;;;;;;;3.00;2.75;;;18.90;61.60;;;;;;4961895;28;20096;-27
2021/12/24 14:15:07;;;;;;;4.15;2.72;;;18.90;61.40;;;;;;4960926;28;20525;-26
2021/12/24 14:17:51;;;;;;;2.83;2.63;;;18.80;61.30;;;;;;4962485;28;20070;-26
2021/12/24 14:20:27;;;;;;;2.70;2.50;;;18.70;62.10;;;;;;4961599;28;20113;-28
2021/12/24 14:22:52;;;;;;;3.90;2.25;;;18.70;61.90;;;;;;4963901;28;20077;-33
2021/12/24 14:25:18;;;;;;;2.63;2.42;;;18.60;62.70;;;;;;4962912;28;20074;-26
2021/12/24 14:27:48;;;;;;;3.15;2.70;;;18.60;62.10;;;;;;4964083;28;20595;-31
2021/12/24 14:30:17;;;;;;;4.18;2.70;;;18.70;62.10;;;;;;4961065;28;20066;-24
2021/12/24 14:32:45;;;;;;;4.03;3.13;;;18.70;61.90;;;;;;4963796;28;20042;-30
2021/12/24 14:35:26;;;;;;;3.20;2.75;;;18.80;62.00;;;;;;4962952;28;20122;-27
2021/12/24 14:37:59;;;;;;;2.75;2.22;;;18.80;61.70;;;;;;4964318;28;20094;-30
2021/12/24 14:40:25;;;;;;;2.50;2.30;;;18.70;61.90;;;;;;4616995;28;10000501;-32
2021/12/24 14:42:51;;;;;;;2.75;2.55;;;18.70;62.10;;;;;;4958492;28;20057;-28
2021/12/24 14:45:23;;;;;;;4.10;2.22;;;18.70;62.30;;;;;;4957782;28;20062;-26